📊 Raw Sensor Data

Showing records 38976 to 39000 of 84,938 total

ID Distance (ft) Battery V Battery A Int Temp (°F) Int Humid (%) Ext Temp (°F) Solar V RSSI SNR Time Stamp
45975 15.5 4.00 21 70 42 77 4.50 -70 8 07/11/2025 07:30 AM
45974 15.5 3.96 18 68 42 75 4.50 -70 8 07/11/2025 07:15 AM
45973 15.4 3.99 10 66 42 74 4.50 -70 8 07/11/2025 07:00 AM
45972 15.4 3.93 0 63 43 68 4.50 -70 8 07/11/2025 06:45 AM
45971 15.3 3.91 0 61 43 66 4.50 -70 8 07/11/2025 06:30 AM
45970 15.3 3.90 -6 60 44 62 4.50 -70 8 07/11/2025 06:15 AM
45969 15.3 3.89 -17 60 44 61 4.20 -70 8 07/11/2025 06:00 AM
45968 15.3 3.91 -5 61 44 62 1.10 -71 8 07/11/2025 05:45 AM
45967 15.3 3.91 -5 61 44 61 0.10 -70 8 07/11/2025 05:30 AM
45966 15.3 3.91 -5 62 45 62 0.00 -70 8 07/11/2025 05:15 AM
45965 15.3 3.91 -5 62 45 63 0.00 -71 7 07/11/2025 05:00 AM
45964 15.3 3.91 -5 63 45 65 0.00 -70 8 07/11/2025 04:45 AM
45963 15.3 3.97 -5 64 44 64 0.00 -71 7 07/11/2025 04:30 AM
45962 15.3 3.97 -5 66 43 67 0.00 -71 8 07/11/2025 04:15 AM
45961 15.3 3.97 -5 66 43 70 0.00 -70 8 07/11/2025 04:00 AM
45960 15.3 3.91 -5 65 43 67 0.00 -70 8 07/11/2025 03:45 AM
45959 15.3 3.91 -5 65 44 69 0.00 -71 9 07/11/2025 03:30 AM
45958 15.3 3.91 -5 63 44 65 0.10 -70 8 07/11/2025 03:15 AM
45957 15.3 3.91 -5 64 44 67 0.00 -71 8 07/11/2025 03:00 AM
45956 15.3 3.91 -5 63 44 65 0.00 -71 8 07/11/2025 02:45 AM
45955 15.3 3.97 -5 63 44 66 0.00 -70 8 07/11/2025 02:30 AM
45954 15.3 3.91 -5 63 44 65 0.10 -69 8 07/11/2025 02:15 AM
45953 15.3 3.91 -5 63 45 65 0.10 -70 8 07/11/2025 02:00 AM
45952 15.3 3.92 -5 62 45 64 0.00 -70 8 07/11/2025 01:45 AM
45951 15.3 3.92 -5 62 45 64 0.00 -71 8 07/11/2025 01:30 AM